sensor_id;sensor_type;location;lat;lon;timestamp;temperature;humidity
16441;DHT22;8330;-33.858;151.184;2022-12-18T00:01:16;19.50;99.90
16441;DHT22;8330;-33.858;151.184;2022-12-18T00:03:47;19.30;99.90
16441;DHT22;8330;-33.858;151.184;2022-12-18T00:06:18;19.40;99.90
16441;DHT22;8330;-33.858;151.184;2022-12-18T00:08:50;19.40;99.90
16441;DHT22;8330;-33.858;151.184;2022-12-18T00:11:23;19.20;99.90
16441;DHT22;8330;-33.858;151.184;2022-12-18T00:13:55;18.90;99.90
16441;DHT22;8330;-33.858;151.184;2022-12-18T00:16:27;18.80;99.90
16441;DHT22;8330;-33.858;151.184;2022-12-18T00:19:01;18.50;99.90
16441;DHT22;8330;-33.858;151.184;2022-12-18T00:21:32;18.50;99.90
16441;DHT22;8330;-33.858;151.184;2022-12-18T00:24:03;18.40;99.90
16441;DHT22;8330;-33.858;151.184;2022-12-18T00:26:36;18.40;99.90
16441;DHT22;8330;-33.858;151.184;2022-12-18T00:29:09;18.50;99.90
16441;DHT22;8330;-33.858;151.184;2022-12-18T00:31:41;18.70;99.90
16441;DHT22;8330;-33.858;151.184;2022-12-18T00:34:15;18.90;99.90
16441;DHT22;8330;-33.858;151.184;2022-12-18T00:36:48;18.90;99.90
16441;DHT22;8330;-33.858;151.184;2022-12-18T00:39:19;18.70;99.90
16441;DHT22;8330;-33.858;151.184;2022-12-18T00:41:52;18.90;99.90
16441;DHT22;8330;-33.858;151.184;2022-12-18T00:44:38;19.10;99.90
16441;DHT22;8330;-33.858;151.184;2022-12-18T00:47:09;19.20;99.90
16441;DHT22;8330;-33.858;151.184;2022-12-18T00:49:40;19.50;99.90
16441;DHT22;8330;-33.858;151.184;2022-12-18T00:52:12;19.60;99.90
16441;DHT22;8330;-33.858;151.184;2022-12-18T00:54:43;19.60;99.90
16441;DHT22;8330;-33.858;151.184;2022-12-18T00:57:16;19.90;99.90
16441;DHT22;8330;-33.858;151.184;2022-12-18T00:59:47;20.10;99.90
16441;DHT22;8330;-33.858;151.184;2022-12-18T01:02:18;20.10;99.90
16441;DHT22;8330;-33.858;151.184;2022-12-18T01:04:48;19.90;99.90
16441;DHT22;8330;-33.858;151.184;2022-12-18T01:07:19;19.50;99.90
16441;DHT22;8330;-33.858;151.184;2022-12-18T01:09:50;19.10;99.90
16441;DHT22;8330;-33.858;151.184;2022-12-18T01:12:23;18.90;99.90
16441;DHT22;8330;-33.858;151.184;2022-12-18T01:14:54;18.80;99.90
16441;DHT22;8330;-33.858;151.184;2022-12-18T01:17:24;18.80;99.90
16441;DHT22;8330;-33.858;151.184;2022-12-18T01:19:58;18.80;99.90
16441;DHT22;8330;-33.858;151.184;2022-12-18T01:22:32;18.70;99.90
16441;DHT22;8330;-33.858;151.184;2022-12-18T01:25:03;18.60;99.90
16441;DHT22;8330;-33.858;151.184;2022-12-18T01:27:36;18.40;99.90
16441;DHT22;8330;-33.858;151.184;2022-12-18T01:30:10;18.40;99.90
16441;DHT22;8330;-33.858;151.184;2022-12-18T01:32:41;18.30;99.90
16441;DHT22;8330;-33.858;151.184;2022-12-18T01:35:12;18.20;99.90
16441;DHT22;8330;-33.858;151.184;2022-12-18T01:37:43;18.20;99.90
16441;DHT22;8330;-33.858;151.184;2022-12-18T01:40:14;18.20;99.90
16441;DHT22;8330;-33.858;151.184;2022-12-18T01:42:51;18.20;99.90
16441;DHT22;8330;-33.858;151.184;2022-12-18T01:45:27;18.10;99.90
16441;DHT22;8330;-33.858;151.184;2022-12-18T01:47:59;18.20;99.90
16441;DHT22;8330;-33.858;151.184;2022-12-18T01:50:34;18.30;99.90
16441;DHT22;8330;-33.858;151.184;2022-12-18T01:53:10;18.30;99.90
16441;DHT22;8330;-33.858;151.184;2022-12-18T01:55:44;18.40;99.90
16441;DHT22;8330;-33.858;151.184;2022-12-18T01:58:18;18.50;99.90
16441;DHT22;8330;-33.858;151.184;2022-12-18T02:00:50;18.60;99.90
16441;DHT22;8330;-33.858;151.184;2022-12-18T02:03:20;18.70;99.90
16441;DHT22;8330;-33.858;151.184;2022-12-18T02:05:57;18.70;99.90
16441;DHT22;8330;-33.858;151.184;2022-12-18T02:08:33;18.60;99.90
16441;DHT22;8330;-33.858;151.184;2022-12-18T02:11:10;18.70;99.90
16441;DHT22;8330;-33.858;151.184;2022-12-18T02:13:49;18.80;99.90
16441;DHT22;8330;-33.858;151.184;2022-12-18T02:16:27;18.90;99.90
16441;DHT22;8330;-33.858;151.184;2022-12-18T02:19:02;19.00;99.90
16441;DHT22;8330;-33.858;151.184;2022-12-18T02:21:44;19.30;99.90
16441;DHT22;8330;-33.858;151.184;2022-12-18T02:24:24;19.40;99.90
16441;DHT22;8330;-33.858;151.184;2022-12-18T02:27:02;19.50;99.90
16441;DHT22;8330;-33.858;151.184;2022-12-18T02:29:41;19.60;99.90
16441;DHT22;8330;-33.858;151.184;2022-12-18T02:32:16;19.90;99.90
16441;DHT22;8330;-33.858;151.184;2022-12-18T02:34:57;20.10;99.90
16441;DHT22;8330;-33.858;151.184;2022-12-18T02:37:29;20.00;99.90
16441;DHT22;8330;-33.858;151.184;2022-12-18T02:40:02;19.90;99.90
16441;DHT22;8330;-33.858;151.184;2022-12-18T02:42:35;19.70;99.90
16441;DHT22;8330;-33.858;151.184;2022-12-18T02:45:07;19.70;99.90
16441;DHT22;8330;-33.858;151.184;2022-12-18T02:47:39;19.70;99.90
16441;DHT22;8330;-33.858;151.184;2022-12-18T02:50:18;19.80;99.90
16441;DHT22;8330;-33.858;151.184;2022-12-18T02:53:01;20.00;99.90
16441;DHT22;8330;-33.858;151.184;2022-12-18T02:55:44;20.10;99.90
16441;DHT22;8330;-33.858;151.184;2022-12-18T02:58:26;20.30;99.90
16441;DHT22;8330;-33.858;151.184;2022-12-18T03:01:03;20.30;99.90
16441;DHT22;8330;-33.858;151.184;2022-12-18T03:03:38;20.40;99.90
16441;DHT22;8330;-33.858;151.184;2022-12-18T03:06:12;20.50;99.90
16441;DHT22;8330;-33.858;151.184;2022-12-18T03:08:48;20.70;99.90
16441;DHT22;8330;-33.858;151.184;2022-12-18T03:11:20;20.90;99.90
16441;DHT22;8330;-33.858;151.184;2022-12-18T03:14:14;21.00;99.90
16441;DHT22;8330;-33.858;151.184;2022-12-18T03:16:46;21.20;99.90
16441;DHT22;8330;-33.858;151.184;2022-12-18T03:19:25;21.40;99.90
16441;DHT22;8330;-33.858;151.184;2022-12-18T03:21:58;21.40;99.90
16441;DHT22;8330;-33.858;151.184;2022-12-18T03:24:32;21.40;99.90
16441;DHT22;8330;-33.858;151.184;2022-12-18T03:27:09;21.40;99.90
16441;DHT22;8330;-33.858;151.184;2022-12-18T03:29:45;21.40;99.90
16441;DHT22;8330;-33.858;151.184;2022-12-18T03:32:21;21.50;99.90
16441;DHT22;8330;-33.858;151.184;2022-12-18T03:34:57;21.40;99.90
16441;DHT22;8330;-33.858;151.184;2022-12-18T03:37:35;21.40;99.90
16441;DHT22;8330;-33.858;151.184;2022-12-18T03:40:07;21.40;99.90
16441;DHT22;8330;-33.858;151.184;2022-12-18T03:42:43;21.20;99.90
16441;DHT22;8330;-33.858;151.184;2022-12-18T03:45:23;21.10;99.90
16441;DHT22;8330;-33.858;151.184;2022-12-18T03:48:01;21.00;99.90
16441;DHT22;8330;-33.858;151.184;2022-12-18T03:50:39;21.00;99.90
16441;DHT22;8330;-33.858;151.184;2022-12-18T03:53:18;21.00;99.90
16441;DHT22;8330;-33.858;151.184;2022-12-18T03:55:53;20.90;99.90
16441;DHT22;8330;-33.858;151.184;2022-12-18T03:58:27;20.70;99.90
16441;DHT22;8330;-33.858;151.184;2022-12-18T04:01:03;20.70;99.90
16441;DHT22;8330;-33.858;151.184;2022-12-18T04:03:37;20.70;99.90
16441;DHT22;8330;-33.858;151.184;2022-12-18T04:06:09;20.70;99.90
16441;DHT22;8330;-33.858;151.184;2022-12-18T04:08:40;20.70;99.90
16441;DHT22;8330;-33.858;151.184;2022-12-18T04:11:11;20.70;99.90
16441;DHT22;8330;-33.858;151.184;2022-12-18T04:13:43;20.70;99.90
16441;DHT22;8330;-33.858;151.184;2022-12-18T04:16:16;20.80;99.90
16441;DHT22;8330;-33.858;151.184;2022-12-18T04:18:47;20.90;99.90
16441;DHT22;8330;-33.858;151.184;2022-12-18T04:21:18;21.10;99.90
16441;DHT22;8330;-33.858;151.184;2022-12-18T04:23:49;21.50;99.90
16441;DHT22;8330;-33.858;151.184;2022-12-18T04:26:20;21.60;99.90
16441;DHT22;8330;-33.858;151.184;2022-12-18T04:28:50;21.70;99.90
16441;DHT22;8330;-33.858;151.184;2022-12-18T04:31:24;21.80;99.90
16441;DHT22;8330;-33.858;151.184;2022-12-18T04:33:55;22.10;99.90
16441;DHT22;8330;-33.858;151.184;2022-12-18T04:36:26;22.30;99.90
16441;DHT22;8330;-33.858;151.184;2022-12-18T04:38:57;22.00;99.90
16441;DHT22;8330;-33.858;151.184;2022-12-18T04:41:28;22.00;99.90
16441;DHT22;8330;-33.858;151.184;2022-12-18T04:43:58;21.90;99.90
16441;DHT22;8330;-33.858;151.184;2022-12-18T04:46:31;21.80;99.90
16441;DHT22;8330;-33.858;151.184;2022-12-18T04:49:02;21.60;99.90
16441;DHT22;8330;-33.858;151.184;2022-12-18T04:51:35;21.60;99.90
16441;DHT22;8330;-33.858;151.184;2022-12-18T04:54:06;21.30;99.90
16441;DHT22;8330;-33.858;151.184;2022-12-18T04:56:37;21.50;99.90
16441;DHT22;8330;-33.858;151.184;2022-12-18T04:59:10;21.80;99.90
16441;DHT22;8330;-33.858;151.184;2022-12-18T05:01:43;22.20;99.90
16441;DHT22;8330;-33.858;151.184;2022-12-18T05:04:14;22.40;99.90
16441;DHT22;8330;-33.858;151.184;2022-12-18T05:06:44;22.50;99.90
16441;DHT22;8330;-33.858;151.184;2022-12-18T05:09:15;22.80;99.90
16441;DHT22;8330;-33.858;151.184;2022-12-18T05:11:46;23.00;99.90
16441;DHT22;8330;-33.858;151.184;2022-12-18T05:14:17;23.10;99.90
16441;DHT22;8330;-33.858;151.184;2022-12-18T05:16:50;23.30;99.90
16441;DHT22;8330;-33.858;151.184;2022-12-18T05:19:21;23.50;99.90
16441;DHT22;8330;-33.858;151.184;2022-12-18T05:21:52;23.50;99.90
16441;DHT22;8330;-33.858;151.184;2022-12-18T05:24:22;23.60;99.90
16441;DHT22;8330;-33.858;151.184;2022-12-18T05:26:53;23.60;99.90
16441;DHT22;8330;-33.858;151.184;2022-12-18T05:29:28;23.30;99.90
16441;DHT22;8330;-33.858;151.184;2022-12-18T05:32:01;23.40;99.90
16441;DHT22;8330;-33.858;151.184;2022-12-18T05:34:33;23.60;99.90
16441;DHT22;8330;-33.858;151.184;2022-12-18T05:37:04;23.70;99.90
16441;DHT22;8330;-33.858;151.184;2022-12-18T05:39:35;23.90;99.90
16441;DHT22;8330;-33.858;151.184;2022-12-18T05:42:05;24.40;99.90
16441;DHT22;8330;-33.858;151.184;2022-12-18T05:44:36;24.90;99.90
16441;DHT22;8330;-33.858;151.184;2022-12-18T05:47:09;25.00;99.90
16441;DHT22;8330;-33.858;151.184;2022-12-18T05:49:40;24.90;99.90
16441;DHT22;8330;-33.858;151.184;2022-12-18T05:52:10;25.10;99.90
16441;DHT22;8330;-33.858;151.184;2022-12-18T05:54:41;25.40;99.90
16441;DHT22;8330;-33.858;151.184;2022-12-18T05:57:12;25.80;99.90
16441;DHT22;8330;-33.858;151.184;2022-12-18T05:59:43;25.90;99.90
16441;DHT22;8330;-33.858;151.184;2022-12-18T06:02:16;26.00;98.30
16441;DHT22;8330;-33.858;151.184;2022-12-18T06:04:50;25.50;99.80
16441;DHT22;8330;-33.858;151.184;2022-12-18T06:07:20;25.50;99.90
16441;DHT22;8330;-33.858;151.184;2022-12-18T06:09:51;25.10;99.90
16441;DHT22;8330;-33.858;151.184;2022-12-18T06:12:22;25.00;99.90
16441;DHT22;8330;-33.858;151.184;2022-12-18T06:14:53;25.10;99.90
16441;DHT22;8330;-33.858;151.184;2022-12-18T06:17:28;24.90;99.90
16441;DHT22;8330;-33.858;151.184;2022-12-18T06:19:59;24.80;99.90
16441;DHT22;8330;-33.858;151.184;2022-12-18T06:22:32;24.80;99.90
16441;DHT22;8330;-33.858;151.184;2022-12-18T06:25:03;24.70;99.90
16441;DHT22;8330;-33.858;151.184;2022-12-18T06:27:34;24.60;99.90
16441;DHT22;8330;-33.858;151.184;2022-12-18T06:30:06;24.60;99.90
16441;DHT22;8330;-33.858;151.184;2022-12-18T06:32:39;24.50;99.90
16441;DHT22;8330;-33.858;151.184;2022-12-18T06:35:10;24.50;99.90
16441;DHT22;8330;-33.858;151.184;2022-12-18T06:37:41;24.90;99.90
16441;DHT22;8330;-33.858;151.184;2022-12-18T06:40:11;25.20;98.30
16441;DHT22;8330;-33.858;151.184;2022-12-18T06:42:42;25.60;96.00
16441;DHT22;8330;-33.858;151.184;2022-12-18T06:45:16;25.90;94.40
16441;DHT22;8330;-33.858;151.184;2022-12-18T06:47:49;26.30;95.70
16441;DHT22;8330;-33.858;151.184;2022-12-18T06:50:22;26.80;96.10
16441;DHT22;8330;-33.858;151.184;2022-12-18T06:52:54;27.10;92.90
16441;DHT22;8330;-33.858;151.184;2022-12-18T06:55:24;27.40;91.30
16441;DHT22;8330;-33.858;151.184;2022-12-18T06:57:55;27.40;90.80
16441;DHT22;8330;-33.858;151.184;2022-12-18T07:00:26;27.50;90.00
16441;DHT22;8330;-33.858;151.184;2022-12-18T07:02:59;27.70;86.10
16441;DHT22;8330;-33.858;151.184;2022-12-18T07:05:32;27.50;85.40
16441;DHT22;8330;-33.858;151.184;2022-12-18T07:08:03;27.80;82.60
16441;DHT22;8330;-33.858;151.184;2022-12-18T07:10:34;28.00;81.10
16441;DHT22;8330;-33.858;151.184;2022-12-18T07:13:11;28.10;80.60
16441;DHT22;8330;-33.858;151.184;2022-12-18T07:15:41;28.40;79.20
16441;DHT22;8330;-33.858;151.184;2022-12-18T07:18:14;28.40;75.00
16441;DHT22;8330;-33.858;151.184;2022-12-18T07:20:45;27.60;76.10
16441;DHT22;8330;-33.858;151.184;2022-12-18T07:23:16;27.50;78.30
16441;DHT22;8330;-33.858;151.184;2022-12-18T07:25:50;27.60;78.30
16441;DHT22;8330;-33.858;151.184;2022-12-18T07:28:21;27.50;80.40
16441;DHT22;8330;-33.858;151.184;2022-12-18T07:30:55;27.20;82.00
16441;DHT22;8330;-33.858;151.184;2022-12-18T07:33:28;27.20;81.50
16441;DHT22;8330;-33.858;151.184;2022-12-18T07:36:00;26.70;82.60
16441;DHT22;8330;-33.858;151.184;2022-12-18T07:38:31;26.00;83.80
16441;DHT22;8330;-33.858;151.184;2022-12-18T07:41:03;25.30;88.50
16441;DHT22;8330;-33.858;151.184;2022-12-18T07:43:38;24.30;92.70
16441;DHT22;8330;-33.858;151.184;2022-12-18T07:46:12;23.70;98.30
16441;DHT22;8330;-33.858;151.184;2022-12-18T07:48:45;22.90;99.90
16441;DHT22;8330;-33.858;151.184;2022-12-18T07:51:17;22.50;99.90
16441;DHT22;8330;-33.858;151.184;2022-12-18T07:53:48;22.20;99.90
16441;DHT22;8330;-33.858;151.184;2022-12-18T07:56:20;21.90;99.90
16441;DHT22;8330;-33.858;151.184;2022-12-18T07:58:51;21.60;99.90
16441;DHT22;8330;-33.858;151.184;2022-12-18T08:01:22;21.60;99.90
16441;DHT22;8330;-33.858;151.184;2022-12-18T08:03:55;21.50;99.90
16441;DHT22;8330;-33.858;151.184;2022-12-18T08:06:28;21.30;99.90
16441;DHT22;8330;-33.858;151.184;2022-12-18T08:08:59;21.20;99.90
16441;DHT22;8330;-33.858;151.184;2022-12-18T08:11:30;20.90;99.90
16441;DHT22;8330;-33.858;151.184;2022-12-18T08:14:01;20.70;99.90
16441;DHT22;8330;-33.858;151.184;2022-12-18T08:16:35;20.50;99.90
16441;DHT22;8330;-33.858;151.184;2022-12-18T08:19:08;20.40;99.90
16441;DHT22;8330;-33.858;151.184;2022-12-18T08:21:38;20.50;99.90
16441;DHT22;8330;-33.858;151.184;2022-12-18T08:24:10;20.40;99.90
16441;DHT22;8330;-33.858;151.184;2022-12-18T08:26:41;20.30;99.90
16441;DHT22;8330;-33.858;151.184;2022-12-18T08:29:12;20.30;99.90
16441;DHT22;8330;-33.858;151.184;2022-12-18T08:31:42;20.20;99.90
16441;DHT22;8330;-33.858;151.184;2022-12-18T08:34:15;20.10;99.90
16441;DHT22;8330;-33.858;151.184;2022-12-18T08:36:46;19.90;99.90
16441;DHT22;8330;-33.858;151.184;2022-12-18T08:39:17;19.80;99.90
16441;DHT22;8330;-33.858;151.184;2022-12-18T08:41:48;19.90;99.90
16441;DHT22;8330;-33.858;151.184;2022-12-18T08:44:31;19.80;99.90
16441;DHT22;8330;-33.858;151.184;2022-12-18T08:47:08;19.80;99.90
16441;DHT22;8330;-33.858;151.184;2022-12-18T08:49:41;19.80;99.90
16441;DHT22;8330;-33.858;151.184;2022-12-18T08:52:20;19.70;99.90
16441;DHT22;8330;-33.858;151.184;2022-12-18T08:54:54;19.70;99.90
16441;DHT22;8330;-33.858;151.184;2022-12-18T08:57:27;19.60;99.90
16441;DHT22;8330;-33.858;151.184;2022-12-18T09:00:34;19.50;99.90
16441;DHT22;8330;-33.858;151.184;2022-12-18T09:03:09;19.20;99.90
16441;DHT22;8330;-33.858;151.184;2022-12-18T09:05:47;18.90;99.90
16441;DHT22;8330;-33.858;151.184;2022-12-18T09:08:21;18.60;99.90
16441;DHT22;8330;-33.858;151.184;2022-12-18T09:11:09;18.50;99.90
16441;DHT22;8330;-33.858;151.184;2022-12-18T09:13:44;18.40;99.90
16441;DHT22;8330;-33.858;151.184;2022-12-18T09:16:14;18.40;99.90
16441;DHT22;8330;-33.858;151.184;2022-12-18T09:18:45;18.30;99.90
16441;DHT22;8330;-33.858;151.184;2022-12-18T09:21:21;18.20;99.90
16441;DHT22;8330;-33.858;151.184;2022-12-18T09:23:54;18.20;99.90
16441;DHT22;8330;-33.858;151.184;2022-12-18T09:26:26;18.10;99.90
16441;DHT22;8330;-33.858;151.184;2022-12-18T09:28:57;18.20;99.90
16441;DHT22;8330;-33.858;151.184;2022-12-18T09:31:28;18.20;99.90
16441;DHT22;8330;-33.858;151.184;2022-12-18T09:34:00;18.10;99.90
16441;DHT22;8330;-33.858;151.184;2022-12-18T09:36:36;18.10;99.90
16441;DHT22;8330;-33.858;151.184;2022-12-18T09:39:07;18.10;99.90
16441;DHT22;8330;-33.858;151.184;2022-12-18T09:41:50;18.10;99.90
16441;DHT22;8330;-33.858;151.184;2022-12-18T09:44:24;18.20;99.90
16441;DHT22;8330;-33.858;151.184;2022-12-18T09:47:10;18.30;99.90
16441;DHT22;8330;-33.858;151.184;2022-12-18T09:49:47;18.20;99.90
16441;DHT22;8330;-33.858;151.184;2022-12-18T09:52:29;18.40;99.90
16441;DHT22;8330;-33.858;151.184;2022-12-18T09:55:05;18.40;99.90
16441;DHT22;8330;-33.858;151.184;2022-12-18T09:57:45;18.40;99.90
16441;DHT22;8330;-33.858;151.184;2022-12-18T10:00:22;18.40;99.90
16441;DHT22;8330;-33.858;151.184;2022-12-18T10:02:56;18.30;99.90
16441;DHT22;8330;-33.858;151.184;2022-12-18T10:05:34;18.40;99.90
16441;DHT22;8330;-33.858;151.184;2022-12-18T10:08:13;18.40;99.90
16441;DHT22;8330;-33.858;151.184;2022-12-18T10:10:50;18.40;99.90
16441;DHT22;8330;-33.858;151.184;2022-12-18T10:13:34;18.40;99.90
16441;DHT22;8330;-33.858;151.184;2022-12-18T10:16:14;18.40;99.90
16441;DHT22;8330;-33.858;151.184;2022-12-18T10:19:15;18.40;99.90
16441;DHT22;8330;-33.858;151.184;2022-12-18T10:21:55;18.30;99.90
16441;DHT22;8330;-33.858;151.184;2022-12-18T10:24:33;18.40;99.90
16441;DHT22;8330;-33.858;151.184;2022-12-18T10:27:13;18.40;99.90
16441;DHT22;8330;-33.858;151.184;2022-12-18T10:29:45;18.40;99.90
16441;DHT22;8330;-33.858;151.184;2022-12-18T10:32:18;18.40;99.90
16441;DHT22;8330;-33.858;151.184;2022-12-18T10:34:53;18.40;99.90
16441;DHT22;8330;-33.858;151.184;2022-12-18T10:37:26;18.50;99.90
16441;DHT22;8330;-33.858;151.184;2022-12-18T10:40:11;18.60;99.90
16441;DHT22;8330;-33.858;151.184;2022-12-18T10:42:42;18.60;99.90
16441;DHT22;8330;-33.858;151.184;2022-12-18T10:45:16;18.70;99.90
16441;DHT22;8330;-33.858;151.184;2022-12-18T10:47:49;18.80;99.90
16441;DHT22;8330;-33.858;151.184;2022-12-18T10:50:23;18.80;99.90
16441;DHT22;8330;-33.858;151.184;2022-12-18T10:52:57;18.80;99.90
16441;DHT22;8330;-33.858;151.184;2022-12-18T10:55:33;18.70;99.90
16441;DHT22;8330;-33.858;151.184;2022-12-18T10:58:19;18.60;99.90
16441;DHT22;8330;-33.858;151.184;2022-12-18T11:01:11;18.40;99.90
16441;DHT22;8330;-33.858;151.184;2022-12-18T11:03:43;18.30;99.90
16441;DHT22;8330;-33.858;151.184;2022-12-18T11:06:19;18.20;99.90
16441;DHT22;8330;-33.858;151.184;2022-12-18T11:08:59;18.00;99.90
16441;DHT22;8330;-33.858;151.184;2022-12-18T11:11:36;18.00;99.90
16441;DHT22;8330;-33.858;151.184;2022-12-18T11:14:12;17.90;99.90
16441;DHT22;8330;-33.858;151.184;2022-12-18T11:16:47;18.00;99.90
16441;DHT22;8330;-33.858;151.184;2022-12-18T11:19:28;18.00;99.90
16441;DHT22;8330;-33.858;151.184;2022-12-18T11:22:01;18.00;99.90
16441;DHT22;8330;-33.858;151.184;2022-12-18T11:24:33;18.10;99.90
16441;DHT22;8330;-33.858;151.184;2022-12-18T11:27:16;18.00;99.90
16441;DHT22;8330;-33.858;151.184;2022-12-18T11:30:06;18.00;99.90
16441;DHT22;8330;-33.858;151.184;2022-12-18T11:32:38;18.00;99.90
16441;DHT22;8330;-33.858;151.184;2022-12-18T11:35:16;18.00;99.90
16441;DHT22;8330;-33.858;151.184;2022-12-18T11:37:50;17.80;99.90
16441;DHT22;8330;-33.858;151.184;2022-12-18T11:40:31;17.80;99.90
16441;DHT22;8330;-33.858;151.184;2022-12-18T11:43:16;17.80;99.90
16441;DHT22;8330;-33.858;151.184;2022-12-18T11:45:52;17.80;99.90
16441;DHT22;8330;-33.858;151.184;2022-12-18T11:48:27;17.80;99.90
16441;DHT22;8330;-33.858;151.184;2022-12-18T11:51:00;17.80;99.90
16441;DHT22;8330;-33.858;151.184;2022-12-18T11:53:32;17.90;99.90
16441;DHT22;8330;-33.858;151.184;2022-12-18T11:56:19;17.80;99.90
16441;DHT22;8330;-33.858;151.184;2022-12-18T11:59:08;17.70;99.90
16441;DHT22;8330;-33.858;151.184;2022-12-18T12:01:50;17.70;99.90
16441;DHT22;8330;-33.858;151.184;2022-12-18T12:07:25;17.60;99.90
16441;DHT22;8330;-33.858;151.184;2022-12-18T12:10:06;17.60;99.90
16441;DHT22;8330;-33.858;151.184;2022-12-18T12:12:57;17.60;99.90
16441;DHT22;8330;-33.858;151.184;2022-12-18T12:15:39;17.70;99.90
16441;DHT22;8330;-33.858;151.184;2022-12-18T12:18:20;17.70;99.90
16441;DHT22;8330;-33.858;151.184;2022-12-18T12:21:01;17.80;99.90
16441;DHT22;8330;-33.858;151.184;2022-12-18T12:23:39;17.80;99.90
16441;DHT22;8330;-33.858;151.184;2022-12-18T12:26:19;17.80;99.90
16441;DHT22;8330;-33.858;151.184;2022-12-18T12:29:00;17.80;99.90
16441;DHT22;8330;-33.858;151.184;2022-12-18T12:31:46;17.70;99.90
16441;DHT22;8330;-33.858;151.184;2022-12-18T12:34:23;17.60;99.90
16441;DHT22;8330;-33.858;151.184;2022-12-18T12:37:06;17.60;99.90
16441;DHT22;8330;-33.858;151.184;2022-12-18T12:39:43;17.50;99.90
16441;DHT22;8330;-33.858;151.184;2022-12-18T12:42:24;17.50;99.90
16441;DHT22;8330;-33.858;151.184;2022-12-18T12:45:17;17.50;99.90
16441;DHT22;8330;-33.858;151.184;2022-12-18T12:47:53;17.60;99.90
16441;DHT22;8330;-33.858;151.184;2022-12-18T12:50:28;17.60;99.90
16441;DHT22;8330;-33.858;151.184;2022-12-18T12:53:05;17.50;99.90
16441;DHT22;8330;-33.858;151.184;2022-12-18T12:55:36;17.40;99.90
16441;DHT22;8330;-33.858;151.184;2022-12-18T12:58:14;17.40;99.90
16441;DHT22;8330;-33.858;151.184;2022-12-18T13:00:52;17.50;99.90
16441;DHT22;8330;-33.858;151.184;2022-12-18T13:03:41;17.50;99.90
16441;DHT22;8330;-33.858;151.184;2022-12-18T13:06:19;17.40;99.90
16441;DHT22;8330;-33.858;151.184;2022-12-18T13:08:56;17.40;99.90
16441;DHT22;8330;-33.858;151.184;2022-12-18T13:11:39;17.50;99.90
16441;DHT22;8330;-33.858;151.184;2022-12-18T13:14:30;17.40;99.90
16441;DHT22;8330;-33.858;151.184;2022-12-18T13:17:26;17.50;99.90
16441;DHT22;8330;-33.858;151.184;2022-12-18T13:20:16;17.60;99.90
16441;DHT22;8330;-33.858;151.184;2022-12-18T13:22:48;17.70;99.90
16441;DHT22;8330;-33.858;151.184;2022-12-18T13:25:37;17.70;99.90
16441;DHT22;8330;-33.858;151.184;2022-12-18T13:28:10;17.70;99.90
16441;DHT22;8330;-33.858;151.184;2022-12-18T13:30:53;17.70;99.90
16441;DHT22;8330;-33.858;151.184;2022-12-18T13:33:50;17.70;99.90
16441;DHT22;8330;-33.858;151.184;2022-12-18T13:36:38;17.80;99.90
16441;DHT22;8330;-33.858;151.184;2022-12-18T13:39:22;17.80;99.90
16441;DHT22;8330;-33.858;151.184;2022-12-18T13:48:25;17.90;99.90
16441;DHT22;8330;-33.858;151.184;2022-12-18T13:51:02;17.90;99.90
16441;DHT22;8330;-33.858;151.184;2022-12-18T13:53:42;17.90;99.90
16441;DHT22;8330;-33.858;151.184;2022-12-18T13:56:17;17.90;99.90
16441;DHT22;8330;-33.858;151.184;2022-12-18T14:01:57;18.00;99.90
16441;DHT22;8330;-33.858;151.184;2022-12-18T14:04:30;18.00;99.90
16441;DHT22;8330;-33.858;151.184;2022-12-18T14:07:05;18.00;99.90
16441;DHT22;8330;-33.858;151.184;2022-12-18T14:09:42;17.90;99.90
16441;DHT22;8330;-33.858;151.184;2022-12-18T14:12:17;18.00;99.90
16441;DHT22;8330;-33.858;151.184;2022-12-18T14:15:06;17.90;99.90
16441;DHT22;8330;-33.858;151.184;2022-12-18T14:17:38;17.80;99.90
16441;DHT22;8330;-33.858;151.184;2022-12-18T14:20:15;17.80;99.90
16441;DHT22;8330;-33.858;151.184;2022-12-18T14:22:49;17.80;99.90
16441;DHT22;8330;-33.858;151.184;2022-12-18T14:25:23;17.80;99.90
16441;DHT22;8330;-33.858;151.184;2022-12-18T14:28:13;17.80;99.90
16441;DHT22;8330;-33.858;151.184;2022-12-18T14:30:46;17.80;99.90
16441;DHT22;8330;-33.858;151.184;2022-12-18T14:33:27;17.80;99.90
16441;DHT22;8330;-33.858;151.184;2022-12-18T14:36:00;17.80;99.90
16441;DHT22;8330;-33.858;151.184;2022-12-18T14:38:32;17.80;99.90
16441;DHT22;8330;-33.858;151.184;2022-12-18T14:41:09;17.80;99.90
16441;DHT22;8330;-33.858;151.184;2022-12-18T14:43:41;17.80;99.90
16441;DHT22;8330;-33.858;151.184;2022-12-18T14:46:29;17.80;99.90
16441;DHT22;8330;-33.858;151.184;2022-12-18T14:49:01;17.70;99.90
16441;DHT22;8330;-33.858;151.184;2022-12-18T14:51:33;17.70;99.90
16441;DHT22;8330;-33.858;151.184;2022-12-18T14:54:05;17.70;99.90
16441;DHT22;8330;-33.858;151.184;2022-12-18T14:56:44;17.70;99.90
16441;DHT22;8330;-33.858;151.184;2022-12-18T14:59:19;17.70;99.90
16441;DHT22;8330;-33.858;151.184;2022-12-18T15:02:00;17.70;99.90
16441;DHT22;8330;-33.858;151.184;2022-12-18T15:04:34;17.80;99.90
16441;DHT22;8330;-33.858;151.184;2022-12-18T15:07:11;17.80;99.90
16441;DHT22;8330;-33.858;151.184;2022-12-18T15:10:08;17.80;99.90
16441;DHT22;8330;-33.858;151.184;2022-12-18T15:12:44;17.80;99.90
16441;DHT22;8330;-33.858;151.184;2022-12-18T15:18:30;17.90;99.90
16441;DHT22;8330;-33.858;151.184;2022-12-18T15:21:09;17.80;99.90
16441;DHT22;8330;-33.858;151.184;2022-12-18T15:23:48;17.90;99.90
16441;DHT22;8330;-33.858;151.184;2022-12-18T15:26:21;18.00;99.90
16441;DHT22;8330;-33.858;151.184;2022-12-18T15:28:54;18.00;99.90
16441;DHT22;8330;-33.858;151.184;2022-12-18T15:31:30;18.00;99.90
16441;DHT22;8330;-33.858;151.184;2022-12-18T15:34:18;18.00;99.90
16441;DHT22;8330;-33.858;151.184;2022-12-18T15:36:51;18.10;99.90
16441;DHT22;8330;-33.858;151.184;2022-12-18T15:39:22;18.10;99.90
16441;DHT22;8330;-33.858;151.184;2022-12-18T15:41:53;18.10;99.90
16441;DHT22;8330;-33.858;151.184;2022-12-18T15:44:42;18.00;99.90
16441;DHT22;8330;-33.858;151.184;2022-12-18T15:47:17;18.10;99.90
16441;DHT22;8330;-33.858;151.184;2022-12-18T15:49:51;18.00;99.90
16441;DHT22;8330;-33.858;151.184;2022-12-18T15:52:23;18.10;99.90
16441;DHT22;8330;-33.858;151.184;2022-12-18T15:54:54;18.00;99.90
16441;DHT22;8330;-33.858;151.184;2022-12-18T15:57:40;18.00;99.90
16441;DHT22;8330;-33.858;151.184;2022-12-18T16:00:15;17.90;99.90
16441;DHT22;8330;-33.858;151.184;2022-12-18T16:02:46;18.00;99.90
16441;DHT22;8330;-33.858;151.184;2022-12-18T16:05:18;18.00;99.90
16441;DHT22;8330;-33.858;151.184;2022-12-18T16:07:49;18.00;99.90